Time;durP1;ratioP1;P1;durP2;ratioP2;P2;SDS_P1;SDS_P2;PMS_P1;PMS_P2;Temp;Humidity;BMP_temperature;BMP_pressure;BME280_temperature;BME280_humidity;BME280_pressure;Samples;Min_cycle;Max_cycle;Signal;HPM_P1;HPM_P2
2022/05/27 00:02:00;;;;;;;7.58;2.40;;;;;;;15.66;56.25;100560.72;1649074;86;25902;-63
2022/05/27 00:04:29;;;;;;;18.05;3.47;;;;;;;15.64;56.24;100550.49;1649079;87;26140;-64
2022/05/27 00:06:56;;;;;;;6.42;2.52;;;;;;;15.63;56.37;100541.52;1647199;86;98905;-63
2022/05/27 00:09:25;;;;;;;13.80;2.90;;;;;;;15.64;56.39;100542.38;1648760;87;27497;-63
2022/05/27 00:11:53;;;;;;;7.58;2.60;;;;;;;15.65;56.61;100540.06;1647232;86;99210;-63
2022/05/27 00:14:20;;;;;;;14.13;2.92;;;;;;;15.66;56.66;100535.05;1648494;87;25942;-63
2022/05/27 00:16:48;;;;;;;6.87;2.70;;;;;;;15.63;56.65;100529.36;1648898;87;26001;-63
2022/05/27 00:19:16;;;;;;;6.37;2.80;;;;;;;15.64;56.74;100527.52;1646096;87;98745;-63
2022/05/27 00:21:42;;;;;;;10.40;3.12;;;;;;;15.63;56.88;100522.61;1637963;85;27524;-63
2022/05/27 00:24:08;;;;;;;8.70;2.72;;;;;;;15.65;56.87;100519.80;1636325;85;99040;-64
2022/05/27 00:26:34;;;;;;;8.85;3.72;;;;;;;15.68;57.08;100519.11;1637283;85;25848;-62
2022/05/27 00:29:01;;;;;;;8.30;3.12;;;;;;;15.70;57.08;100516.31;1635116;85;25826;-62
2022/05/27 00:31:29;;;;;;;9.38;3.12;;;;;;;15.73;57.23;100516.11;1641052;85;98815;-63
2022/05/27 00:33:55;;;;;;;7.60;3.20;;;;;;;15.72;57.10;100515.23;1635251;86;28473;-62
2022/05/27 00:36:22;;;;;;;6.17;2.52;;;;;;;15.73;57.09;100510.22;1637165;85;98840;-63
2022/05/27 00:38:49;;;;;;;15.80;4.17;;;;;;;15.72;57.08;100504.91;1627256;86;25665;-65
2022/05/27 00:41:19;;;;;;;8.35;3.33;;;;;;;15.72;57.14;100502.21;1608682;87;99541;-63
2022/05/27 00:43:47;;;;;;;7.45;3.00;;;;;;;15.72;57.20;100499.02;1614475;86;25732;-62
2022/05/27 00:46:21;;;;;;;9.60;3.22;;;;;;;15.72;57.28;100496.33;1605127;87;27498;-63
2022/05/27 00:48:55;;;;;;;6.47;2.98;;;;;;;15.73;57.30;100497.19;1610411;86;98751;-65
2022/05/27 00:51:25;;;;;;;11.68;3.58;;;;;;;15.75;57.48;100501.52;1607735;86;25861;-64
2022/05/27 00:54:09;;;;;;;8.88;3.08;;;;;;;15.74;57.46;100497.09;1607913;87;98985;-62
2022/05/27 00:56:39;;;;;;;7.20;3.35;;;;;;;15.74;57.52;100494.38;1611083;86;25795;-63
2022/05/27 00:59:28;;;;;;;6.53;3.02;;;;;;;15.72;57.51;100489.56;1582545;88;27474;-63
2022/05/27 01:01:56;;;;;;;11.78;2.98;;;;;;;15.73;57.53;100484.55;1581683;87;98592;-63
2022/05/27 01:04:24;;;;;;;10.63;3.50;;;;;;;15.73;57.59;100483.19;1639620;86;26557;-63
2022/05/27 01:06:51;;;;;;;7.00;3.25;;;;;;;15.75;57.58;100480.39;1609734;86;98969;-63
2022/05/27 01:09:20;;;;;;;14.68;3.42;;;;;;;15.72;57.61;100473.36;1583545;88;25740;-63
2022/05/27 01:12:16;;;;;;;11.08;3.40;;;;;;;15.71;57.68;100468.05;1614394;87;98957;-63
2022/05/27 01:15:04;;;;;;;10.55;3.87;;;;;;;15.72;57.76;100471.14;1582886;88;25767;-63
2022/05/27 01:18:02;;;;;;;7.33;3.35;;;;;;;15.71;57.79;100466.22;1582610;89;26111;-63
2022/05/27 01:21:02;;;;;;;7.33;3.40;;;;;;;15.72;57.84;100472.00;1583907;87;26501;-63
2022/05/27 01:23:57;;;;;;;5.58;3.02;;;;;;;15.69;57.88;100454.64;1639498;86;26205;-63
2022/05/27 01:26:47;;;;;;;9.85;3.22;;;;;;;15.68;57.96;100462.37;1606272;87;99176;-63
2022/05/27 01:29:52;;;;;;;15.83;4.33;;;;;;;15.68;58.00;100461.50;1608617;86;27107;-63
2022/05/27 01:32:31;;;;;;;5.97;3.33;;;;;;;15.64;58.05;100456.79;1636046;86;98786;-63
2022/05/27 01:35:30;;;;;;;10.03;3.30;;;;;;;15.61;58.11;100452.94;1605981;87;25923;-62
2022/05/27 01:38:04;;;;;;;6.08;3.70;;;;;;;15.61;58.17;100440.79;1606566;87;98950;-63
2022/05/27 01:40:51;;;;;;;8.45;3.72;;;;;;;15.62;58.23;100444.36;1606624;87;27512;-63
2022/05/27 01:43:31;;;;;;;12.28;3.65;;;;;;;15.61;58.23;100439.44;1611009;87;98900;-63
2022/05/27 01:46:16;;;;;;;9.43;3.33;;;;;;;15.59;58.31;100436.00;1579698;87;26283;-64
2022/05/27 01:48:57;;;;;;;12.28;3.55;;;;;;;15.60;58.36;100430.12;1637308;86;99423;-63
2022/05/27 01:51:38;;;;;;;6.05;3.37;;;;;;;15.59;58.43;100431.95;1635956;86;25873;-63
2022/05/27 01:54:22;;;;;;;8.05;3.75;;;;;;;15.58;58.47;100432.44;1609700;86;99013;-63
2022/05/27 01:56:59;;;;;;;10.32;3.47;;;;;;;15.56;58.49;100424.02;1585462;88;25855;-64
2022/05/27 01:59:35;;;;;;;5.10;2.60;;;;;;;15.55;58.51;100423.64;1612619;86;26468;-62
2022/05/27 02:02:09;;;;;;;7.62;2.95;;;;;;;15.52;58.58;100421.14;1637913;86;98699;-63
2022/05/27 02:04:46;;;;;;;10.43;2.98;;;;;;;15.51;58.60;100418.06;1610841;87;25780;-62
2022/05/27 02:07:37;;;;;;;11.70;3.42;;;;;;;15.50;58.67;100415.84;1607580;87;99021;-63
2022/05/27 02:10:10;;;;;;;7.22;2.67;;;;;;;15.47;58.70;100417.41;1606261;87;25805;-63
2022/05/27 02:12:47;;;;;;;5.85;2.77;;;;;;;15.40;58.75;100416.08;1606974;87;98826;-64
2022/05/27 02:15:18;;;;;;;7.60;2.98;;;;;;;15.36;58.82;100414.55;1606594;87;25966;-63
2022/05/27 02:17:57;;;;;;;9.13;2.67;;;;;;;15.31;58.86;100408.59;1580537;89;25850;-63
2022/05/27 02:22:55;;;;;;;6.10;2.50;;;;;;;15.16;59.09;100402.38;1870693;75;26339;-63
2022/05/27 02:25:31;;;;;;;9.25;2.92;;;;;;;14.98;59.28;100391.92;1808135;76;98660;-62
2022/05/27 02:28:21;;;;;;;5.83;2.55;;;;;;;14.90;59.40;100402.73;1783756;77;27410;-63
2022/05/27 02:30:53;;;;;;;6.08;2.70;;;;;;;14.81;59.67;100398.42;1771765;78;99182;-63
2022/05/27 02:36:12;;;;;;;8.68;2.70;;;;;;;14.70;60.22;100404.98;1759456;79;99262;-62
2022/05/27 02:38:39;;;;;;;5.87;2.90;;;;;;;14.62;60.61;100398.73;1707090;81;25820;-63
2022/05/27 02:41:44;;;;;;;9.38;3.00;;;;;;;14.59;60.74;100389.49;1688531;82;27472;-63
2022/05/27 02:44:43;;;;;;;5.10;2.98;;;;;;;14.58;60.82;100391.32;1743940;80;99270;-64
2022/05/27 02:47:23;;;;;;;6.85;3.35;;;;;;;14.56;61.00;100389.20;1746800;79;25820;-64
2022/05/27 02:50:12;;;;;;;8.80;3.47;;;;;;;14.52;61.43;100389.02;1766543;79;98789;-62
2022/05/27 02:53:20;;;;;;;8.15;3.08;;;;;;;14.49;61.79;100385.64;1746299;80;27374;-63
2022/05/27 02:55:57;;;;;;;5.95;3.02;;;;;;;14.45;61.84;100391.72;1705541;80;99045;-63
2022/05/27 02:58:25;;;;;;;7.35;3.45;;;;;;;14.41;62.07;100381.19;1700235;82;27195;-63
2022/05/27 03:00:53;;;;;;;10.80;3.35;;;;;;;14.36;62.57;100388.22;1701760;82;98729;-63
2022/05/27 03:03:19;;;;;;;10.60;3.33;;;;;;;14.29;62.68;100384.17;1702658;82;25647;-63
2022/05/27 03:06:13;;;;;;;9.30;3.20;;;;;;;14.26;62.83;100383.89;1698186;82;25832;-63
2022/05/27 03:09:11;;;;;;;8.40;3.83;;;;;;;14.25;63.03;100389.37;1747836;80;98550;-62
2022/05/27 03:11:52;;;;;;;7.15;3.00;;;;;;;14.20;63.15;100388.31;1743708;81;25780;-63
2022/05/27 03:14:45;;;;;;;7.42;2.87;;;;;;;14.17;63.30;100388.98;1729831;80;98839;-63
2022/05/27 03:17:59;;;;;;;11.70;4.20;;;;;;;14.12;63.58;100385.71;1729772;80;25770;-63
2022/05/27 03:20:36;;;;;;;7.42;3.40;;;;;;;14.06;63.85;100394.17;1739887;80;99294;-63
2022/05/27 03:23:23;;;;;;;8.40;3.65;;;;;;;13.96;64.11;100401.95;1744487;81;27334;-63
2022/05/27 03:26:17;;;;;;;5.80;3.70;;;;;;;13.82;64.40;100398.75;1737455;81;98769;-63
2022/05/27 03:29:05;;;;;;;12.35;3.87;;;;;;;13.70;64.70;100396.80;1746393;80;26302;-62
2022/05/27 03:31:36;;;;;;;7.42;4.08;;;;;;;13.57;65.15;100398.49;1748288;79;98975;-62
2022/05/27 03:34:08;;;;;;;7.85;3.72;;;;;;;13.49;65.47;100396.25;1717759;82;25788;-62
2022/05/27 03:36:51;;;;;;;7.15;3.22;;;;;;;13.42;65.82;100400.75;1710748;81;99328;-63
2022/05/27 03:39:22;;;;;;;11.95;4.47;;;;;;;13.33;66.49;100400.33;1721885;81;25838;-63
2022/05/27 03:41:52;;;;;;;;;;;;;;;13.27;66.77;100408.77;1693547;82;25887;-63
2022/05/27 03:44:22;;;;;;;10.70;4.70;;;;;;;13.20;67.33;100415.94;1689117;82;83947;-63
2022/05/27 03:46:51;;;;;;;11.08;5.22;;;;;;;13.13;67.53;100419.42;1696035;81;25782;-64
2022/05/27 03:49:18;;;;;;;11.93;4.67;;;;;;;13.08;68.34;100417.47;1724379;81;98990;-64
2022/05/27 03:52:04;;;;;;;12.82;5.83;;;;;;;13.01;68.50;100414.75;1707019;81;26392;-64
2022/05/27 03:54:33;;;;;;;8.25;4.50;;;;;;;12.97;68.95;100417.25;1684155;82;99724;-64
2022/05/27 03:56:59;;;;;;;8.13;4.87;;;;;;;12.91;69.38;100409.05;1732259;80;25736;-64
2022/05/27 03:59:25;;;;;;;10.53;5.42;;;;;;;12.89;69.65;100399.33;1733694;80;25702;-65
2022/05/27 04:01:54;;;;;;;10.90;5.33;;;;;;;12.86;69.87;100396.34;1711271;80;98930;-64
2022/05/27 04:04:28;;;;;;;16.52;5.47;;;;;;;12.85;70.29;100394.60;1701511;82;25865;-65
2022/05/27 04:06:56;;;;;;;10.43;5.92;;;;;;;12.84;70.59;100390.66;1700076;82;98861;-67
2022/05/27 04:09:25;;;;;;;12.47;5.95;;;;;;;12.85;71.63;100417.95;1669710;83;25837;-68
2022/05/27 04:11:52;;;;;;;14.53;6.50;;;;;;;12.86;71.98;100395.47;1676309;83;26115;-65
2022/05/27 04:14:20;;;;;;;11.45;6.00;;;;;;;12.87;73.12;100390.48;1692657;82;98833;-66
2022/05/27 04:16:48;;;;;;;12.43;5.60;;;;;;;12.87;73.03;100397.20;1687638;82;27127;-68
2022/05/27 04:19:17;;;;;;;9.70;5.40;;;;;;;12.88;73.49;100392.22;1688254;82;99379;-66
2022/05/27 04:21:45;;;;;;;12.03;6.45;;;;;;;12.92;74.73;100408.09;1685909;81;25839;-67
2022/05/27 04:24:13;;;;;;;12.73;6.35;;;;;;;12.91;74.50;100397.42;1682394;83;25705;-66
2022/05/27 04:26:39;;;;;;;15.83;6.25;;;;;;;12.92;74.61;100390.61;1669417;83;98729;-66
2022/05/27 04:29:06;;;;;;;9.60;5.47;;;;;;;12.93;75.23;100393.69;1669149;83;26377;-66
2022/05/27 04:31:32;;;;;;;12.47;5.70;;;;;;;12.94;75.29;100378.42;1652749;84;98706;-66
2022/05/27 04:33:58;;;;;;;10.88;6.17;;;;;;;12.96;75.42;100379.20;1635237;85;25761;-65
2022/05/27 04:36:25;;;;;;;8.43;5.30;;;;;;;12.99;75.88;100389.78;1638645;84;98983;-65
2022/05/27 04:38:51;;;;;;;8.43;5.12;;;;;;;12.98;76.23;100401.50;1660367;83;27539;-67
2022/05/27 04:41:17;;;;;;;9.20;5.87;;;;;;;13.01;76.44;100387.84;1666107;84;26889;-65
2022/05/27 04:43:46;;;;;;;10.00;5.95;;;;;;;13.02;76.43;100388.23;1658549;83;98682;-65
2022/05/27 04:46:12;;;;;;;12.45;5.10;;;;;;;13.06;77.07;100387.58;1666399;82;26437;-66
2022/05/27 04:48:38;;;;;;;10.25;5.80;;;;;;;13.07;76.76;100379.41;1699043;82;99105;-65
2022/05/27 04:51:05;;;;;;;18.17;8.00;;;;;;;13.10;77.19;100385.09;1696116;82;27431;-67
2022/05/27 04:53:34;;;;;;;9.78;5.40;;;;;;;13.10;77.35;100382.41;1699459;82;26426;-65
2022/05/27 04:56:02;;;;;;;9.33;5.20;;;;;;;13.11;77.55;100382.31;1658817;82;98841;-65
2022/05/27 04:58:31;;;;;;;11.60;5.80;;;;;;;13.11;77.46;100386.36;1698451;82;26497;-67
2022/05/27 05:00:59;;;;;;;14.93;5.90;;;;;;;13.14;77.78;100387.52;1698784;81;99121;-65
2022/05/27 05:03:28;;;;;;;6.05;4.70;;;;;;;13.17;77.93;100386.03;1675492;84;27422;-67
2022/05/27 05:05:54;;;;;;;8.80;4.75;;;;;;;13.22;78.57;100395.19;1696890;82;25863;-66
2022/05/27 05:08:33;;;;;;;8.08;4.70;;;;;;;13.22;78.33;100377.21;1671719;83;98669;-66
2022/05/27 05:11:05;;;;;;;8.93;5.08;;;;;;;13.24;78.56;100371.27;1696470;82;27206;-66
2022/05/27 05:13:33;;;;;;;7.97;5.12;;;;;;;13.25;78.98;100381.55;1690861;82;98731;-66
2022/05/27 05:16:00;;;;;;;8.28;5.50;;;;;;;13.24;78.98;100395.96;1693500;82;27460;-66
2022/05/27 05:18:26;;;;;;;8.35;5.33;;;;;;;13.25;79.59;100381.07;1685402;82;98995;-66
2022/05/27 05:20:56;;;;;;;7.92;5.08;;;;;;;13.27;79.39;100378.29;1670619;83;25845;-66
2022/05/27 05:23:24;;;;;;;6.33;5.30;;;;;;;13.28;79.62;100379.55;1671761;83;25809;-66
2022/05/27 05:25:55;;;;;;;8.90;5.40;;;;;;;13.30;79.83;100372.24;1692785;82;98752;-65
2022/05/27 05:28:21;;;;;;;9.73;4.87;;;;;;;13.32;79.74;100373.02;1711891;82;27405;-65
2022/05/27 05:30:47;;;;;;;5.75;4.55;;;;;;;13.37;80.03;100377.27;1710190;82;99020;-65
2022/05/27 05:33:14;;;;;;;10.65;5.10;;;;;;;13.38;80.01;100369.58;1706684;82;25846;-65
2022/05/27 05:35:40;;;;;;;7.65;4.62;;;;;;;13.41;79.92;100369.40;1704934;81;25798;-66
2022/05/27 05:38:08;;;;;;;7.30;5.05;;;;;;;13.45;79.99;100380.38;1706322;82;98764;-66
2022/05/27 05:40:35;;;;;;;8.78;5.00;;;;;;;13.44;79.95;100371.91;1701718;82;27482;-67
2022/05/27 05:43:02;;;;;;;10.08;5.47;;;;;;;13.45;80.81;100370.95;1708086;81;99013;-67
2022/05/27 05:45:32;;;;;;;5.12;4.00;;;;;;;13.44;80.29;100367.39;1715574;81;25793;-66
2022/05/27 05:47:58;;;;;;;6.85;4.70;;;;;;;13.45;80.51;100370.95;1713283;81;25867;-66
2022/05/27 05:50:27;;;;;;;5.60;5.10;;;;;;;13.49;80.24;100376.06;1711904;81;98606;-66
2022/05/27 05:52:56;;;;;;;8.08;5.30;;;;;;;13.53;81.15;100367.32;1716881;81;28426;-67
2022/05/27 05:55:24;;;;;;;7.92;4.97;;;;;;;13.53;81.01;100368.19;1711844;81;99058;-66
2022/05/27 05:57:53;;;;;;;9.43;5.50;;;;;;;13.54;81.11;100363.67;1717752;81;25774;-65
2022/05/27 06:00:25;;;;;;;8.68;5.60;;;;;;;13.55;80.75;100364.92;1712550;81;26196;-65
2022/05/27 06:02:52;;;;;;;7.22;5.17;;;;;;;13.57;80.95;100356.27;1707399;81;98492;-66
2022/05/27 06:05:19;;;;;;;8.68;5.87;;;;;;;13.60;80.74;100370.03;1719134;81;27464;-66
2022/05/27 06:07:49;;;;;;;5.42;4.35;;;;;;;13.65;81.14;100364.76;1718147;81;98637;-66
2022/05/27 06:10:17;;;;;;;8.10;4.62;;;;;;;13.69;81.48;100366.78;1712758;80;25766;-66
2022/05/27 06:12:43;;;;;;;7.50;4.60;;;;;;;13.75;81.62;100362.85;1714771;80;98935;-68
2022/05/27 06:15:16;;;;;;;6.72;4.65;;;;;;;13.79;81.44;100355.84;1708059;81;25655;-65
2022/05/27 06:17:43;;;;;;;11.48;5.20;;;;;;;13.84;81.66;100357.77;1705689;82;27456;-64
2022/05/27 06:20:13;;;;;;;6.22;4.37;;;;;;;13.88;81.23;100356.63;1702442;82;98774;-66
2022/05/27 06:22:40;;;;;;;9.58;4.28;;;;;;;13.91;81.11;100358.26;1704197;82;25955;-65
2022/05/27 06:25:09;;;;;;;10.75;4.47;;;;;;;13.95;81.24;100389.44;1725544;80;98955;-65
2022/05/27 06:27:38;;;;;;;6.42;4.17;;;;;;;13.95;81.03;100364.72;1740871;80;26161;-65
2022/05/27 06:35:37;;;;;;;4.78;4.00;;;;;;;14.02;80.72;100365.68;1729790;81;26513;-66
2022/05/27 06:38:06;;;;;;;6.62;3.90;;;;;;;14.04;80.54;100373.19;1723771;82;98658;-66
2022/05/27 06:40:31;;;;;;;7.47;3.85;;;;;;;14.08;80.36;100377.43;1727701;80;26305;-66
2022/05/27 06:42:57;;;;;;;9.10;3.95;;;;;;;14.13;80.44;100371.27;1711023;82;98853;-65
2022/05/27 06:45:24;;;;;;;6.10;3.55;;;;;;;14.17;80.09;100380.90;1732650;80;25957;-65
2022/05/27 06:47:52;;;;;;;8.10;4.15;;;;;;;14.19;80.02;100376.28;1697308;83;26221;-65
2022/05/27 06:50:18;;;;;;;8.08;3.80;;;;;;;14.19;79.71;100366.36;1734162;80;98765;-65
2022/05/27 06:52:47;;;;;;;8.13;4.03;;;;;;;14.22;79.60;100365.30;1743978;80;26280;-64
2022/05/27 06:55:15;;;;;;;5.95;4.20;;;;;;;14.22;79.40;100371.56;1740622;80;98703;-65
2022/05/27 06:57:43;;;;;;;5.25;4.17;;;;;;;14.23;79.37;100375.13;1707180;81;26011;-65
2022/05/27 07:00:12;;;;;;;7.47;4.70;;;;;;;14.22;79.22;100364.82;1718750;81;25888;-65
2022/05/27 07:02:37;;;;;;;7.80;4.45;;;;;;;14.24;79.11;100360.68;1746204;80;98796;-65
2022/05/27 07:05:05;;;;;;;8.10;3.55;;;;;;;14.26;79.08;100365.50;1735737;80;25807;-65
2022/05/27 07:07:32;;;;;;;7.83;4.08;;;;;;;14.27;78.97;100361.36;1723893;81;98786;-65
2022/05/27 07:09:58;;;;;;;6.65;4.70;;;;;;;14.27;78.81;100351.92;1714679;81;26712;-64
2022/05/27 07:12:24;;;;;;;12.35;4.35;;;;;;;14.30;78.86;100366.55;1709927;82;25940;-64
2022/05/27 07:14:52;;;;;;;7.58;4.12;;;;;;;14.34;78.80;100365.02;1741181;80;98711;-64
2022/05/27 07:17:19;;;;;;;6.65;3.50;;;;;;;14.39;78.72;100367.80;1750919;80;25792;-65
2022/05/27 07:19:46;;;;;;;8.68;3.27;;;;;;;14.42;78.52;100369.47;1736025;79;98726;-65
2022/05/27 07:22:12;;;;;;;4.08;2.87;;;;;;;14.42;78.50;100382.47;1739204;80;25721;-67
2022/05/27 07:24:41;;;;;;;12.20;3.95;;;;;;;14.43;78.26;100388.25;1733692;80;98969;-67
2022/05/27 07:27:09;;;;;;;7.42;3.33;;;;;;;14.46;78.02;100377.27;1701782;82;27447;-66
2022/05/27 07:29:35;;;;;;;5.37;2.92;;;;;;;14.48;77.81;100387.48;1706480;82;25733;-67
2022/05/27 07:32:03;;;;;;;4.47;3.10;;;;;;;14.49;77.39;100393.26;1724197;80;98689;-67
2022/05/27 07:34:31;;;;;;;4.85;2.62;;;;;;;14.50;77.22;100390.08;1738314;80;26235;-65
2022/05/27 07:36:59;;;;;;;5.20;2.92;;;;;;;14.57;76.96;100377.94;1704627;81;98837;-64
2022/05/27 07:39:25;;;;;;;8.75;2.60;;;;;;;14.61;76.74;100370.89;1746896;80;27479;-65
2022/05/27 07:41:53;;;;;;;8.90;3.45;;;;;;;14.63;76.52;100367.23;1721543;81;26551;-66
2022/05/27 07:44:22;;;;;;;9.03;2.85;;;;;;;14.64;76.28;100373.02;1723994;80;98708;-66
2022/05/27 07:46:52;;;;;;;9.38;2.52;;;;;;;14.65;76.06;100354.52;1720086;81;25869;-68
2022/05/27 07:49:19;;;;;;;5.83;3.30;;;;;;;14.69;75.87;100372.23;1706693;80;98936;-65
2022/05/27 07:51:46;;;;;;;6.15;3.22;;;;;;;14.67;75.51;100352.58;1744111;80;27812;-65
2022/05/27 07:54:12;;;;;;;6.92;2.98;;;;;;;14.69;75.38;100326.37;1736186;80;25712;-67
2022/05/27 07:56:40;;;;;;;5.62;2.50;;;;;;;14.72;75.19;100316.25;1712689;80;98634;-67
2022/05/27 07:59:06;;;;;;;5.80;2.45;;;;;;;14.76;75.00;100322.30;1734760;80;25991;-67
2022/05/27 08:01:32;;;;;;;3.52;1.80;;;;;;;14.82;74.70;100335.39;1737039;80;98782;-67
2022/05/27 08:03:59;;;;;;;8.63;2.50;;;;;;;14.86;74.26;100342.31;1740454;80;25769;-68
2022/05/27 08:06:27;;;;;;;5.05;2.30;;;;;;;14.92;74.00;100352.71;1717871;81;26711;-67
2022/05/27 08:08:54;;;;;;;7.25;2.37;;;;;;;14.98;73.43;100355.48;1728366;80;98503;-68
2022/05/27 08:11:23;;;;;;;5.65;2.08;;;;;;;15.04;73.14;100345.16;1729665;81;25861;-68
2022/05/27 08:13:51;;;;;;;5.72;2.37;;;;;;;15.14;72.91;100353.02;1731292;80;98664;-68
2022/05/27 08:16:19;;;;;;;4.72;2.08;;;;;;;15.22;72.42;100341.70;1729122;80;26392;-68
2022/05/27 08:18:44;;;;;;;6.20;2.40;;;;;;;15.26;72.31;100344.58;1731978;80;99418;-67
2022/05/27 08:21:11;;;;;;;4.83;1.82;;;;;;;15.34;71.42;100345.41;1730645;80;27445;-69
2022/05/27 08:23:39;;;;;;;10.75;2.27;;;;;;;15.29;70.61;100348.42;1731427;80;25784;-66
2022/05/27 08:26:06;;;;;;;1.70;1.60;;;;;;;15.29;70.64;100351.61;1733288;80;99127;-68
2022/05/27 08:28:32;;;;;;;5.67;1.77;;;;;;;15.27;69.71;100344.95;1733269;80;25892;-65
2022/05/27 08:30:59;;;;;;;2.75;1.52;;;;;;;15.27;69.37;100323.36;1736387;80;98882;-65
2022/05/27 08:38:01;;;;;;;5.50;1.60;;;;;;;15.25;69.48;100328.86;1753557;80;25865;-66
2022/05/27 08:38:43;;;;;;;4.37;1.35;;;;;;;15.11;67.25;100322.17;1757342;79;98649;-66
2022/05/27 08:41:36;;;;;;;3.52;1.32;;;;;;;15.06;66.78;100312.66;1757581;80;26453;-66
2022/05/27 08:44:31;;;;;;;2.65;0.80;;;;;;;15.00;66.92;100330.61;1758510;80;98882;-66
2022/05/27 08:47:08;;;;;;;3.22;1.30;;;;;;;14.97;65.24;100313.27;1753890;80;29649;-65
2022/05/27 08:49:39;;;;;;;2.00;1.05;;;;;;;14.92;65.41;100338.73;1751047;79;98685;-66
2022/05/27 08:52:33;;;;;;;1.02;0.90;;;;;;;14.92;64.67;100338.73;1757927;79;35796;-67
2022/05/27 08:59:26;;;;;;;3.30;1.10;;;;;;;14.94;64.06;100353.47;1758198;80;98846;-66
2022/05/27 09:00:28;;;;;;;4.47;1.75;;;;;;;15.06;63.68;100347.75;1758843;79;27478;-66
2022/05/27 09:03:01;;;;;;;2.35;0.90;;;;;;;15.15;63.42;100360.63;1752574;80;98342;-65
2022/05/27 09:05:55;;;;;;;2.27;1.12;;;;;;;15.17;63.11;100334.40;1805422;77;26515;-64
2022/05/27 09:08:25;;;;;;;4.28;1.37;;;;;;;15.18;62.53;100328.90;1811597;77;98742;-65
2022/05/27 09:11:30;;;;;;;1.37;0.93;;;;;;;15.19;61.95;100325.23;1805687;77;25169;-66
2022/05/27 09:14:20;;;;;;;5.37;1.40;;;;;;;15.21;61.41;100334.58;1812013;77;98769;-65
2022/05/27 09:16:56;;;;;;;5.62;0.80;;;;;;;15.23;61.52;100328.10;1806386;77;26097;-65
2022/05/27 09:19:54;;;;;;;13.00;1.62;;;;;;;15.29;61.23;100321.42;1789233;78;98743;-66
2022/05/27 09:22:52;;;;;;;2.77;1.30;;;;;;;15.35;61.53;100332.29;1808319;78;26489;-64
2022/05/27 09:25:36;;;;;;;8.33;1.32;;;;;;;15.34;60.80;100334.61;1808406;77;98752;-65
2022/05/27 09:28:14;;;;;;;12.47;1.55;;;;;;;15.28;60.08;100363.38;1812715;77;27404;-64
2022/05/27 09:30:41;;;;;;;4.80;0.90;;;;;;;15.24;60.06;100339.28;1806470;77;98992;-65
2022/05/27 09:33:21;;;;;;;3.67;1.00;;;;;;;15.29;60.43;100330.00;1802255;77;25866;-65
2022/05/27 09:36:08;;;;;;;2.95;1.02;;;;;;;15.30;59.65;100347.45;1811999;77;25289;-64
2022/05/27 09:38:38;;;;;;;3.80;1.12;;;;;;;15.37;59.64;100339.31;1810254;77;98607;-64
2022/05/27 09:41:32;;;;;;;7.15;1.72;;;;;;;15.39;59.82;100310.38;1805636;77;29653;-65
2022/05/27 09:44:36;;;;;;;2.60;1.20;;;;;;;15.48;60.00;100309.73;1805802;77;98646;-65
2022/05/27 09:47:04;;;;;;;3.27;0.95;;;;;;;15.50;59.03;100300.18;1721891;81;25922;-67
2022/05/27 09:49:31;;;;;;;2.83;1.22;;;;;;;15.45;59.30;100299.63;1720524;81;98728;-65
2022/05/27 09:51:59;;;;;;;3.90;1.40;;;;;;;15.48;58.86;100310.22;1758056;78;25944;-65
2022/05/27 09:54:55;;;;;;;5.28;1.20;;;;;;;15.51;58.92;100321.69;1805786;77;27390;-65
2022/05/27 09:57:32;;;;;;;8.13;1.37;;;;;;;15.64;59.02;100306.84;1811015;77;25963;-66
2022/05/27 10:00:04;;;;;;;3.50;1.07;;;;;;;15.74;58.21;100314.69;1808858;77;25803;-65
2022/05/27 10:02:36;;;;;;;3.90;1.40;;;;;;;15.76;58.30;100313.23;1811762;77;98666;-65
2022/05/27 10:05:24;;;;;;;9.15;1.35;;;;;;;15.83;57.74;100305.93;1809831;77;26507;-65
2022/05/27 10:08:10;;;;;;;8.35;1.60;;;;;;;15.79;57.55;100303.06;1808616;77;98986;-65
2022/05/27 10:10:35;;;;;;;10.68;1.60;;;;;;;15.74;57.40;100293.06;1806136;77;26582;-65
2022/05/27 10:13:24;;;;;;;5.85;1.15;;;;;;;15.78;57.54;100294.58;1808737;77;25846;-65
2022/05/27 10:15:50;;;;;;;18.90;2.30;;;;;;;15.90;57.38;100301.82;1807699;77;26314;-66
2022/05/27 10:18:26;;;;;;;8.65;2.15;;;;;;;16.10;57.99;100317.11;1810017;77;26088;-66
2022/05/27 10:21:05;;;;;;;9.50;1.90;;;;;;;16.34;57.67;100291.00;1807302;77;99112;-66
2022/05/27 10:23:39;;;;;;;7.17;2.12;;;;;;;16.52;57.38;100278.84;1808812;77;25744;-66
2022/05/27 10:26:29;;;;;;;8.28;2.17;;;;;;;16.50;56.65;100278.09;1813931;77;99350;-66
2022/05/27 10:29:04;;;;;;;12.33;1.67;;;;;;;16.60;56.70;100271.50;1812495;77;26297;-66
2022/05/27 10:31:30;;;;;;;12.07;1.72;;;;;;;16.80;56.85;100260.09;1812210;77;26158;-64
2022/05/27 10:33:58;;;;;;;7.00;1.57;;;;;;;17.05;56.69;100271.28;1811663;77;98737;-64
2022/05/27 10:36:47;;;;;;;9.63;2.25;;;;;;;17.13;55.90;100271.56;1815848;77;26544;-65
2022/05/27 10:39:17;;;;;;;4.72;1.42;;;;;;;17.05;55.60;100261.80;1809226;77;98680;-65
2022/05/27 10:41:55;;;;;;;14.38;1.90;;;;;;;17.02;55.76;100281.48;1804641;77;26529;-65
2022/05/27 10:44:36;;;;;;;3.77;1.40;;;;;;;16.97;55.16;100268.78;1813200;77;99381;-64
2022/05/27 10:47:05;;;;;;;7.70;1.65;;;;;;;16.90;54.83;100255.33;1807581;77;27463;-66
2022/05/27 10:49:45;;;;;;;8.95;1.50;;;;;;;16.84;55.04;100254.81;1812006;78;25751;-64
2022/05/27 10:52:50;;;;;;;5.97;1.72;;;;;;;16.97;54.71;100258.81;1805827;78;98567;-65
2022/05/27 10:56:05;;;;;;;4.40;1.80;;;;;;;17.08;53.93;100266.98;1810858;77;27524;-63
2022/05/27 11:02:28;;;;;;;13.28;2.62;;;;;;;17.15;52.53;100274.15;1806310;78;25715;-63
2022/05/27 11:05:29;;;;;;;15.55;1.80;;;;;;;17.26;52.56;100269.27;1808034;77;25858;-66
2022/05/27 11:08:21;;;;;;;9.75;1.57;;;;;;;17.41;51.51;100249.98;1817710;77;25800;-64
2022/05/27 11:11:12;;;;;;;7.37;1.32;;;;;;;17.41;51.60;100248.62;1809838;77;98792;-65
2022/05/27 11:17:05;;;;;;;10.63;1.75;;;;;;;17.22;50.25;100256.45;1809929;77;98705;-65
2022/05/27 11:20:06;;;;;;;9.28;1.25;;;;;;;17.20;50.01;100237.61;1810182;78;25705;-64
2022/05/27 11:23:05;;;;;;;6.85;1.50;;;;;;;17.33;50.09;100238.88;1812787;78;98733;-63
2022/05/27 11:25:54;;;;;;;12.82;1.82;;;;;;;17.40;48.50;100233.34;1809045;78;25849;-64
2022/05/27 11:29:10;;;;;;;7.53;1.62;;;;;;;17.44;48.06;100225.84;1803004;78;98964;-65
2022/05/27 11:32:32;;;;;;;25.45;2.40;;;;;;;17.60;46.28;100238.56;1804650;77;27448;-64
2022/05/27 11:35:41;;;;;;;17.30;2.42;;;;;;;17.77;45.22;100242.19;1806420;77;98739;-64
2022/05/27 11:39:05;;;;;;;11.33;1.45;;;;;;;17.89;44.63;100236.77;1806904;77;26032;-64
2022/05/27 11:42:27;;;;;;;4.78;1.27;;;;;;;17.93;45.07;100228.76;1726568;81;25900;-64
2022/05/27 11:45:08;;;;;;;20.50;1.90;;;;;;;18.24;44.48;100248.31;1806827;77;25875;-64
2022/05/27 11:48:08;;;;;;;4.55;1.57;;;;;;;18.11;42.41;100238.12;1806596;77;98495;-65
2022/05/27 11:51:10;;;;;;;14.10;1.50;;;;;;;17.90;43.11;100242.56;1809767;77;26558;-64
2022/05/27 11:54:02;;;;;;;10.72;1.37;;;;;;;17.79;41.65;100243.42;1802700;77;99025;-64
2022/05/27 11:57:11;;;;;;;12.85;1.32;;;;;;;17.61;40.76;100233.52;1805907;77;27597;-65
2022/05/27 11:59:58;;;;;;;30.37;2.08;;;;;;;17.69;40.89;100288.50;1809802;77;98779;-64
2022/05/27 12:02:33;;;;;;;34.78;2.83;;;;;;;17.86;38.09;100260.06;1800223;78;27507;-64
2022/05/27 12:05:14;;;;;;;12.03;1.52;;;;;;;17.66;38.48;100234.53;1813936;77;98778;-64
2022/05/27 12:08:13;;;;;;;11.90;1.80;;;;;;;17.48;38.46;100227.33;1808057;78;26419;-64
2022/05/27 12:10:50;;;;;;;5.95;1.60;;;;;;;17.35;39.01;100231.49;1806641;78;98996;-63
2022/05/27 12:13:31;;;;;;;10.08;2.85;;;;;;;17.26;39.51;100233.56;1804467;77;25783;-64
2022/05/27 12:16:14;;;;;;;15.32;1.75;;;;;;;17.22;39.76;100237.98;1805440;78;98929;-64
2022/05/27 12:18:47;;;;;;;17.05;2.08;;;;;;;17.35;40.36;100225.21;1824398;78;25630;-64
2022/05/27 12:21:21;;;;;;;6.28;1.45;;;;;;;17.59;39.57;100227.84;1804743;77;26531;-64
2022/05/27 12:24:01;;;;;;;11.53;2.85;;;;;;;17.73;40.03;100219.51;1806934;77;97737;-64
2022/05/27 12:26:34;;;;;;;17.87;1.92;;;;;;;17.93;39.66;100239.11;1815794;77;25877;-63
2022/05/27 12:29:08;;;;;;;11.53;2.45;;;;;;;18.14;39.56;100236.52;1811981;77;98846;-64